sensor_id;sensor_type;location;lat;lon;timestamp;P1;durP1;ratioP1;P2;durP2;ratioP2
18879;SDS011;9572;52.378;13.404;2023-12-28T00:01:00;6.70;;;3.83;;
18879;SDS011;9572;52.378;13.404;2023-12-28T00:03:26;10.97;;;3.80;;
18879;SDS011;9572;52.378;13.404;2023-12-28T00:05:55;7.03;;;3.73;;
18879;SDS011;9572;52.378;13.404;2023-12-28T00:08:22;10.73;;;3.93;;
18879;SDS011;9572;52.378;13.404;2023-12-28T00:10:49;9.43;;;3.77;;
18879;SDS011;9572;52.378;13.404;2023-12-28T00:13:16;8.93;;;4.10;;
18879;SDS011;9572;52.378;13.404;2023-12-28T00:15:43;7.30;;;3.43;;
18879;SDS011;9572;52.378;13.404;2023-12-28T00:18:10;6.20;;;3.47;;
18879;SDS011;9572;52.378;13.404;2023-12-28T00:20:37;8.57;;;4.10;;
18879;SDS011;9572;52.378;13.404;2023-12-28T00:23:05;10.73;;;3.50;;
18879;SDS011;9572;52.378;13.404;2023-12-28T00:25:32;9.03;;;3.90;;
18879;SDS011;9572;52.378;13.404;2023-12-28T00:27:59;6.47;;;3.00;;
18879;SDS011;9572;52.378;13.404;2023-12-28T00:30:26;7.03;;;4.13;;
18879;SDS011;9572;52.378;13.404;2023-12-28T00:32:52;6.23;;;3.17;;
18879;SDS011;9572;52.378;13.404;2023-12-28T00:35:19;8.60;;;3.57;;
18879;SDS011;9572;52.378;13.404;2023-12-28T00:37:46;6.10;;;2.77;;
18879;SDS011;9572;52.378;13.404;2023-12-28T00:40:15;7.87;;;3.30;;
18879;SDS011;9572;52.378;13.404;2023-12-28T00:42:42;6.67;;;2.70;;
18879;SDS011;9572;52.378;13.404;2023-12-28T00:45:09;6.93;;;2.87;;
18879;SDS011;9572;52.378;13.404;2023-12-28T00:47:36;5.33;;;2.90;;
18879;SDS011;9572;52.378;13.404;2023-12-28T00:50:03;6.40;;;2.73;;
18879;SDS011;9572;52.378;13.404;2023-12-28T00:52:30;6.57;;;2.77;;
18879;SDS011;9572;52.378;13.404;2023-12-28T00:54:57;6.97;;;2.67;;
18879;SDS011;9572;52.378;13.404;2023-12-28T00:57:25;3.93;;;2.30;;
18879;SDS011;9572;52.378;13.404;2023-12-28T00:59:52;5.53;;;2.50;;
18879;SDS011;9572;52.378;13.404;2023-12-28T01:02:19;5.80;;;3.00;;
18879;SDS011;9572;52.378;13.404;2023-12-28T01:04:46;5.57;;;2.60;;
18879;SDS011;9572;52.378;13.404;2023-12-28T01:07:13;5.03;;;2.20;;
18879;SDS011;9572;52.378;13.404;2023-12-28T01:09:40;4.00;;;2.30;;
18879;SDS011;9572;52.378;13.404;2023-12-28T01:12:06;3.80;;;2.40;;
18879;SDS011;9572;52.378;13.404;2023-12-28T01:14:35;3.97;;;2.20;;
18879;SDS011;9572;52.378;13.404;2023-12-28T01:17:02;4.97;;;2.10;;
18879;SDS011;9572;52.378;13.404;2023-12-28T01:19:29;7.63;;;2.63;;
18879;SDS011;9572;52.378;13.404;2023-12-28T01:21:55;6.03;;;2.63;;
18879;SDS011;9572;52.378;13.404;2023-12-28T01:24:22;5.13;;;2.33;;
18879;SDS011;9572;52.378;13.404;2023-12-28T01:26:49;3.70;;;2.17;;
18879;SDS011;9572;52.378;13.404;2023-12-28T01:29:16;5.17;;;2.30;;
18879;SDS011;9572;52.378;13.404;2023-12-28T01:31:44;8.10;;;2.07;;
18879;SDS011;9572;52.378;13.404;2023-12-28T01:34:11;4.33;;;2.10;;
18879;SDS011;9572;52.378;13.404;2023-12-28T01:36:38;2.90;;;2.17;;
18879;SDS011;9572;52.378;13.404;2023-12-28T01:39:08;6.13;;;2.07;;
18879;SDS011;9572;52.378;13.404;2023-12-28T01:41:35;2.63;;;1.90;;
18879;SDS011;9572;52.378;13.404;2023-12-28T01:44:02;3.67;;;2.10;;
18879;SDS011;9572;52.378;13.404;2023-12-28T01:46:29;3.93;;;2.10;;
18879;SDS011;9572;52.378;13.404;2023-12-28T01:48:58;4.53;;;1.80;;
18879;SDS011;9572;52.378;13.404;2023-12-28T01:51:26;3.37;;;1.67;;
18879;SDS011;9572;52.378;13.404;2023-12-28T01:53:53;2.07;;;1.60;;
18879;SDS011;9572;52.378;13.404;2023-12-28T01:56:21;6.27;;;1.83;;
18879;SDS011;9572;52.378;13.404;2023-12-28T01:58:49;4.20;;;2.00;;
18879;SDS011;9572;52.378;13.404;2023-12-28T02:01:17;6.43;;;2.07;;
18879;SDS011;9572;52.378;13.404;2023-12-28T02:03:44;4.33;;;1.87;;
18879;SDS011;9572;52.378;13.404;2023-12-28T02:06:13;2.07;;;1.30;;
18879;SDS011;9572;52.378;13.404;2023-12-28T02:08:41;2.20;;;1.53;;
18879;SDS011;9572;52.378;13.404;2023-12-28T02:11:08;3.93;;;1.77;;
18879;SDS011;9572;52.378;13.404;2023-12-28T02:13:35;3.53;;;1.47;;
18879;SDS011;9572;52.378;13.404;2023-12-28T02:16:03;2.60;;;1.60;;
18879;SDS011;9572;52.378;13.404;2023-12-28T02:18:37;3.07;;;1.50;;
18879;SDS011;9572;52.378;13.404;2023-12-28T02:21:06;1.83;;;1.40;;
18879;SDS011;9572;52.378;13.404;2023-12-28T02:23:35;4.90;;;1.53;;
18879;SDS011;9572;52.378;13.404;2023-12-28T02:26:04;3.40;;;1.70;;
18879;SDS011;9572;52.378;13.404;2023-12-28T02:28:30;2.83;;;1.50;;
18879;SDS011;9572;52.378;13.404;2023-12-28T02:30:57;3.03;;;1.33;;
18879;SDS011;9572;52.378;13.404;2023-12-28T02:33:29;2.93;;;1.67;;
18879;SDS011;9572;52.378;13.404;2023-12-28T02:36:01;5.17;;;1.63;;
18879;SDS011;9572;52.378;13.404;2023-12-28T02:38:31;2.00;;;1.20;;
18879;SDS011;9572;52.378;13.404;2023-12-28T02:41:01;3.30;;;1.40;;
18879;SDS011;9572;52.378;13.404;2023-12-28T02:43:30;3.10;;;1.40;;
18879;SDS011;9572;52.378;13.404;2023-12-28T02:45:58;1.73;;;1.30;;
18879;SDS011;9572;52.378;13.404;2023-12-28T02:48:25;4.73;;;1.77;;
18879;SDS011;9572;52.378;13.404;2023-12-28T02:50:52;2.30;;;1.37;;
18879;SDS011;9572;52.378;13.404;2023-12-28T02:53:19;3.60;;;1.27;;
18879;SDS011;9572;52.378;13.404;2023-12-28T02:55:45;4.30;;;1.47;;
18879;SDS011;9572;52.378;13.404;2023-12-28T02:58:14;1.80;;;1.40;;
18879;SDS011;9572;52.378;13.404;2023-12-28T03:00:40;1.80;;;1.50;;
18879;SDS011;9572;52.378;13.404;2023-12-28T03:03:07;3.40;;;1.63;;
18879;SDS011;9572;52.378;13.404;2023-12-28T03:05:34;1.80;;;1.47;;
18879;SDS011;9572;52.378;13.404;2023-12-28T03:08:01;2.83;;;1.50;;
18879;SDS011;9572;52.378;13.404;2023-12-28T03:10:28;2.10;;;1.50;;
18879;SDS011;9572;52.378;13.404;2023-12-28T03:12:55;2.07;;;1.40;;
18879;SDS011;9572;52.378;13.404;2023-12-28T03:15:24;3.20;;;1.50;;
18879;SDS011;9572;52.378;13.404;2023-12-28T03:17:51;9.03;;;1.60;;
18879;SDS011;9572;52.378;13.404;2023-12-28T03:20:18;2.97;;;1.33;;
18879;SDS011;9572;52.378;13.404;2023-12-28T03:22:46;2.17;;;1.50;;
18879;SDS011;9572;52.378;13.404;2023-12-28T03:25:13;2.60;;;1.70;;
18879;SDS011;9572;52.378;13.404;2023-12-28T03:27:40;4.30;;;1.40;;
18879;SDS011;9572;52.378;13.404;2023-12-28T03:30:08;1.77;;;1.10;;
18879;SDS011;9572;52.378;13.404;2023-12-28T03:32:36;4.43;;;1.27;;
18879;SDS011;9572;52.378;13.404;2023-12-28T03:35:04;3.23;;;1.20;;
18879;SDS011;9572;52.378;13.404;2023-12-28T03:37:32;4.90;;;1.50;;
18879;SDS011;9572;52.378;13.404;2023-12-28T03:39:59;2.00;;;1.33;;
18879;SDS011;9572;52.378;13.404;2023-12-28T03:42:26;2.33;;;1.30;;
18879;SDS011;9572;52.378;13.404;2023-12-28T03:44:53;2.43;;;1.33;;
18879;SDS011;9572;52.378;13.404;2023-12-28T03:47:20;4.13;;;1.50;;
18879;SDS011;9572;52.378;13.404;2023-12-28T03:49:49;1.80;;;1.10;;
18879;SDS011;9572;52.378;13.404;2023-12-28T03:52:16;1.93;;;1.20;;
18879;SDS011;9572;52.378;13.404;2023-12-28T03:54:43;2.03;;;1.10;;
18879;SDS011;9572;52.378;13.404;2023-12-28T03:57:10;3.20;;;1.60;;
18879;SDS011;9572;52.378;13.404;2023-12-28T03:59:36;1.90;;;1.40;;
18879;SDS011;9572;52.378;13.404;2023-12-28T04:02:03;1.23;;;0.90;;
18879;SDS011;9572;52.378;13.404;2023-12-28T04:04:30;4.33;;;1.10;;
18879;SDS011;9572;52.378;13.404;2023-12-28T04:06:58;1.40;;;1.20;;
18879;SDS011;9572;52.378;13.404;2023-12-28T04:09:25;3.10;;;1.27;;
18879;SDS011;9572;52.378;13.404;2023-12-28T04:11:51;2.23;;;1.07;;
18879;SDS011;9572;52.378;13.404;2023-12-28T04:14:18;2.13;;;1.10;;
18879;SDS011;9572;52.378;13.404;2023-12-28T04:16:45;2.93;;;1.30;;
18879;SDS011;9572;52.378;13.404;2023-12-28T04:19:12;1.77;;;1.23;;
18879;SDS011;9572;52.378;13.404;2023-12-28T04:21:41;1.20;;;1.03;;
18879;SDS011;9572;52.378;13.404;2023-12-28T04:24:10;3.20;;;1.10;;
18879;SDS011;9572;52.378;13.404;2023-12-28T04:26:37;1.90;;;1.10;;
18879;SDS011;9572;52.378;13.404;2023-12-28T04:29:04;1.47;;;1.00;;
18879;SDS011;9572;52.378;13.404;2023-12-28T04:31:32;2.20;;;1.30;;
18879;SDS011;9572;52.378;13.404;2023-12-28T04:33:59;3.33;;;1.20;;
18879;SDS011;9572;52.378;13.404;2023-12-28T04:36:25;2.60;;;0.90;;
18879;SDS011;9572;52.378;13.404;2023-12-28T04:38:52;4.50;;;1.53;;
18879;SDS011;9572;52.378;13.404;2023-12-28T04:41:21;1.30;;;1.20;;
18879;SDS011;9572;52.378;13.404;2023-12-28T04:43:48;1.23;;;0.90;;
18879;SDS011;9572;52.378;13.404;2023-12-28T04:46:15;2.63;;;1.10;;
18879;SDS011;9572;52.378;13.404;2023-12-28T04:48:41;2.50;;;1.23;;
18879;SDS011;9572;52.378;13.404;2023-12-28T04:51:08;2.20;;;1.33;;
18879;SDS011;9572;52.378;13.404;2023-12-28T04:53:35;1.57;;;1.33;;
18879;SDS011;9572;52.378;13.404;2023-12-28T04:56:02;2.23;;;1.40;;
18879;SDS011;9572;52.378;13.404;2023-12-28T04:58:31;1.63;;;1.20;;
18879;SDS011;9572;52.378;13.404;2023-12-28T05:00:58;2.60;;;1.20;;
18879;SDS011;9572;52.378;13.404;2023-12-28T05:03:24;1.57;;;1.20;;
18879;SDS011;9572;52.378;13.404;2023-12-28T05:05:51;2.10;;;1.10;;
18879;SDS011;9572;52.378;13.404;2023-12-28T05:08:18;2.00;;;1.27;;
18879;SDS011;9572;52.378;13.404;2023-12-28T05:10:45;1.60;;;1.30;;
18879;SDS011;9572;52.378;13.404;2023-12-28T05:13:12;2.10;;;1.50;;
18879;SDS011;9572;52.378;13.404;2023-12-28T05:15:40;2.80;;;1.40;;
18879;SDS011;9572;52.378;13.404;2023-12-28T05:18:07;3.10;;;1.30;;
18879;SDS011;9572;52.378;13.404;2023-12-28T05:20:34;2.33;;;1.03;;
18879;SDS011;9572;52.378;13.404;2023-12-28T05:23:01;2.43;;;0.93;;
18879;SDS011;9572;52.378;13.404;2023-12-28T05:25:28;1.87;;;1.40;;
18879;SDS011;9572;52.378;13.404;2023-12-28T05:27:54;1.43;;;1.13;;
18879;SDS011;9572;52.378;13.404;2023-12-28T05:30:21;3.67;;;1.33;;
18879;SDS011;9572;52.378;13.404;2023-12-28T05:32:49;1.50;;;1.20;;
18879;SDS011;9572;52.378;13.404;2023-12-28T05:35:16;3.93;;;0.90;;
18879;SDS011;9572;52.378;13.404;2023-12-28T05:37:43;1.50;;;1.13;;
18879;SDS011;9572;52.378;13.404;2023-12-28T05:40:10;2.17;;;1.13;;
18879;SDS011;9572;52.378;13.404;2023-12-28T05:42:37;1.63;;;1.03;;
18879;SDS011;9572;52.378;13.404;2023-12-28T05:45:05;1.90;;;1.30;;
18879;SDS011;9572;52.378;13.404;2023-12-28T05:47:32;1.53;;;1.13;;
18879;SDS011;9572;52.378;13.404;2023-12-28T05:50:00;2.53;;;1.00;;
18879;SDS011;9572;52.378;13.404;2023-12-28T05:52:28;3.30;;;1.30;;
18879;SDS011;9572;52.378;13.404;2023-12-28T05:54:55;3.20;;;1.20;;
18879;SDS011;9572;52.378;13.404;2023-12-28T05:57:22;2.20;;;1.40;;
18879;SDS011;9572;52.378;13.404;2023-12-28T05:59:51;1.63;;;1.17;;
18879;SDS011;9572;52.378;13.404;2023-12-28T06:02:17;3.70;;;1.43;;
18879;SDS011;9572;52.378;13.404;2023-12-28T06:04:44;1.77;;;1.30;;
18879;SDS011;9572;52.378;13.404;2023-12-28T06:07:13;1.50;;;1.00;;
18879;SDS011;9572;52.378;13.404;2023-12-28T06:09:39;2.07;;;1.20;;
18879;SDS011;9572;52.378;13.404;2023-12-28T06:12:06;3.10;;;1.17;;
18879;SDS011;9572;52.378;13.404;2023-12-28T06:14:33;2.70;;;1.37;;
18879;SDS011;9572;52.378;13.404;2023-12-28T06:17:00;2.60;;;1.47;;
18879;SDS011;9572;52.378;13.404;2023-12-28T06:19:27;2.07;;;1.40;;
18879;SDS011;9572;52.378;13.404;2023-12-28T06:21:55;1.37;;;1.00;;
18879;SDS011;9572;52.378;13.404;2023-12-28T06:24:24;4.43;;;1.80;;
18879;SDS011;9572;52.378;13.404;2023-12-28T06:26:51;2.37;;;1.20;;
18879;SDS011;9572;52.378;13.404;2023-12-28T06:29:18;2.17;;;1.30;;
18879;SDS011;9572;52.378;13.404;2023-12-28T06:31:45;2.87;;;1.20;;
18879;SDS011;9572;52.378;13.404;2023-12-28T06:34:12;2.07;;;1.43;;
18879;SDS011;9572;52.378;13.404;2023-12-28T06:36:39;2.03;;;1.10;;
18879;SDS011;9572;52.378;13.404;2023-12-28T06:39:05;2.47;;;1.07;;
18879;SDS011;9572;52.378;13.404;2023-12-28T06:41:34;2.03;;;1.10;;
18879;SDS011;9572;52.378;13.404;2023-12-28T06:44:01;1.40;;;1.03;;
18879;SDS011;9572;52.378;13.404;2023-12-28T06:46:27;1.60;;;1.20;;
18879;SDS011;9572;52.378;13.404;2023-12-28T06:48:54;1.50;;;1.10;;
18879;SDS011;9572;52.378;13.404;2023-12-28T06:51:23;2.80;;;1.30;;
18879;SDS011;9572;52.378;13.404;2023-12-28T06:53:50;3.20;;;1.50;;
18879;SDS011;9572;52.378;13.404;2023-12-28T06:56:17;2.13;;;1.10;;
18879;SDS011;9572;52.378;13.404;2023-12-28T06:58:45;1.57;;;1.30;;
18879;SDS011;9572;52.378;13.404;2023-12-28T07:01:12;3.80;;;1.47;;
18879;SDS011;9572;52.378;13.404;2023-12-28T07:03:39;2.83;;;1.23;;
18879;SDS011;9572;52.378;13.404;2023-12-28T07:06:06;1.73;;;1.23;;
18879;SDS011;9572;52.378;13.404;2023-12-28T07:08:33;1.90;;;1.40;;
18879;SDS011;9572;52.378;13.404;2023-12-28T07:11:01;2.27;;;1.50;;
18879;SDS011;9572;52.378;13.404;2023-12-28T07:13:28;2.70;;;1.30;;
18879;SDS011;9572;52.378;13.404;2023-12-28T07:15:56;2.83;;;1.27;;
18879;SDS011;9572;52.378;13.404;2023-12-28T07:18:23;1.53;;;1.00;;
18879;SDS011;9572;52.378;13.404;2023-12-28T07:20:50;1.30;;;1.13;;
18879;SDS011;9572;52.378;13.404;2023-12-28T07:23:17;2.07;;;1.50;;
18879;SDS011;9572;52.378;13.404;2023-12-28T07:25:44;2.20;;;1.40;;
18879;SDS011;9572;52.378;13.404;2023-12-28T07:28:11;1.77;;;1.20;;
18879;SDS011;9572;52.378;13.404;2023-12-28T07:30:38;2.03;;;1.40;;
18879;SDS011;9572;52.378;13.404;2023-12-28T07:33:07;1.90;;;1.37;;
18879;SDS011;9572;52.378;13.404;2023-12-28T07:35:34;3.10;;;1.23;;
18879;SDS011;9572;52.378;13.404;2023-12-28T07:38:01;1.80;;;1.33;;
18879;SDS011;9572;52.378;13.404;2023-12-28T07:40:28;3.73;;;1.93;;
18879;SDS011;9572;52.378;13.404;2023-12-28T07:42:55;2.63;;;1.33;;
18879;SDS011;9572;52.378;13.404;2023-12-28T07:45:22;2.03;;;1.40;;
18879;SDS011;9572;52.378;13.404;2023-12-28T07:47:49;1.73;;;1.30;;
18879;SDS011;9572;52.378;13.404;2023-12-28T07:50:18;3.40;;;1.47;;
18879;SDS011;9572;52.378;13.404;2023-12-28T07:52:45;4.30;;;1.50;;
18879;SDS011;9572;52.378;13.404;2023-12-28T07:55:13;2.73;;;1.40;;
18879;SDS011;9572;52.378;13.404;2023-12-28T07:57:40;3.67;;;1.17;;
18879;SDS011;9572;52.378;13.404;2023-12-28T08:00:07;1.47;;;1.13;;
18879;SDS011;9572;52.378;13.404;2023-12-28T08:02:35;1.73;;;1.50;;
18879;SDS011;9572;52.378;13.404;2023-12-28T08:05:02;2.47;;;1.60;;
18879;SDS011;9572;52.378;13.404;2023-12-28T08:07:31;2.73;;;1.60;;
18879;SDS011;9572;52.378;13.404;2023-12-28T08:09:58;2.40;;;1.40;;
18879;SDS011;9572;52.378;13.404;2023-12-28T08:12:24;5.50;;;1.60;;
18879;SDS011;9572;52.378;13.404;2023-12-28T08:14:52;4.73;;;1.60;;
18879;SDS011;9572;52.378;13.404;2023-12-28T08:17:19;1.30;;;1.00;;
18879;SDS011;9572;52.378;13.404;2023-12-28T08:19:46;3.37;;;1.23;;
18879;SDS011;9572;52.378;13.404;2023-12-28T08:22:13;1.40;;;1.30;;
18879;SDS011;9572;52.378;13.404;2023-12-28T08:24:41;1.70;;;1.30;;
18879;SDS011;9572;52.378;13.404;2023-12-28T08:27:08;3.40;;;1.90;;
18879;SDS011;9572;52.378;13.404;2023-12-28T08:29:34;1.53;;;1.43;;
18879;SDS011;9572;52.378;13.404;2023-12-28T08:32:01;3.07;;;1.40;;
18879;SDS011;9572;52.378;13.404;2023-12-28T08:34:29;2.63;;;1.60;;
18879;SDS011;9572;52.378;13.404;2023-12-28T08:36:55;2.47;;;1.67;;
18879;SDS011;9572;52.378;13.404;2023-12-28T08:39:22;2.23;;;1.57;;
18879;SDS011;9572;52.378;13.404;2023-12-28T08:41:50;2.23;;;1.53;;
18879;SDS011;9572;52.378;13.404;2023-12-28T08:44:17;3.53;;;1.70;;
18879;SDS011;9572;52.378;13.404;2023-12-28T08:46:44;2.40;;;1.70;;
18879;SDS011;9572;52.378;13.404;2023-12-28T08:49:11;2.30;;;1.73;;
18879;SDS011;9572;52.378;13.404;2023-12-28T08:51:40;3.37;;;1.80;;
18879;SDS011;9572;52.378;13.404;2023-12-28T08:54:07;3.23;;;1.60;;
18879;SDS011;9572;52.378;13.404;2023-12-28T08:56:34;2.60;;;1.40;;
18879;SDS011;9572;52.378;13.404;2023-12-28T08:59:03;1.53;;;1.40;;
18879;SDS011;9572;52.378;13.404;2023-12-28T09:01:30;2.47;;;1.87;;
18879;SDS011;9572;52.378;13.404;2023-12-28T09:03:57;7.30;;;2.20;;
18879;SDS011;9572;52.378;13.404;2023-12-28T09:06:24;3.10;;;1.90;;
18879;SDS011;9572;52.378;13.404;2023-12-28T09:08:51;4.47;;;1.77;;
18879;SDS011;9572;52.378;13.404;2023-12-28T09:11:19;4.70;;;1.90;;
18879;SDS011;9572;52.378;13.404;2023-12-28T09:13:46;3.73;;;1.83;;
18879;SDS011;9572;52.378;13.404;2023-12-28T09:16:14;3.93;;;2.00;;
18879;SDS011;9572;52.378;13.404;2023-12-28T09:18:42;2.90;;;1.50;;
18879;SDS011;9572;52.378;13.404;2023-12-28T09:21:09;5.83;;;1.70;;
18879;SDS011;9572;52.378;13.404;2023-12-28T09:23:36;2.30;;;1.73;;
18879;SDS011;9572;52.378;13.404;2023-12-28T09:26:05;3.60;;;1.77;;
18879;SDS011;9572;52.378;13.404;2023-12-28T09:28:32;6.47;;;1.80;;
18879;SDS011;9572;52.378;13.404;2023-12-28T09:31:00;3.57;;;2.10;;
18879;SDS011;9572;52.378;13.404;2023-12-28T09:33:29;3.87;;;2.03;;
18879;SDS011;9572;52.378;13.404;2023-12-28T09:35:56;5.90;;;2.23;;
18879;SDS011;9572;52.378;13.404;2023-12-28T09:38:23;3.17;;;1.83;;
18879;SDS011;9572;52.378;13.404;2023-12-28T09:40:52;3.23;;;1.60;;
18879;SDS011;9572;52.378;13.404;2023-12-28T09:43:21;4.80;;;2.13;;
18879;SDS011;9572;52.378;13.404;2023-12-28T09:45:50;3.93;;;1.77;;
18879;SDS011;9572;52.378;13.404;2023-12-28T09:48:18;2.00;;;1.63;;
18879;SDS011;9572;52.378;13.404;2023-12-28T09:50:50;2.87;;;1.80;;
18879;SDS011;9572;52.378;13.404;2023-12-28T09:53:19;4.50;;;1.67;;
18879;SDS011;9572;52.378;13.404;2023-12-28T09:55:48;3.00;;;1.90;;
18879;SDS011;9572;52.378;13.404;2023-12-28T09:58:17;3.30;;;1.87;;
18879;SDS011;9572;52.378;13.404;2023-12-28T10:00:45;2.80;;;1.87;;
18879;SDS011;9572;52.378;13.404;2023-12-28T10:03:13;3.17;;;2.13;;
18879;SDS011;9572;52.378;13.404;2023-12-28T10:05:40;2.47;;;1.90;;
18879;SDS011;9572;52.378;13.404;2023-12-28T10:08:10;4.23;;;2.13;;
18879;SDS011;9572;52.378;13.404;2023-12-28T10:10:37;3.30;;;2.10;;
18879;SDS011;9572;52.378;13.404;2023-12-28T10:13:05;3.50;;;1.83;;
18879;SDS011;9572;52.378;13.404;2023-12-28T10:15:32;2.70;;;2.00;;
18879;SDS011;9572;52.378;13.404;2023-12-28T10:18:00;4.33;;;2.03;;
18879;SDS011;9572;52.378;13.404;2023-12-28T10:20:27;4.63;;;2.20;;
18879;SDS011;9572;52.378;13.404;2023-12-28T10:22:54;1.90;;;1.70;;
18879;SDS011;9572;52.378;13.404;2023-12-28T10:25:23;3.10;;;2.30;;
18879;SDS011;9572;52.378;13.404;2023-12-28T10:27:50;2.97;;;2.30;;
18879;SDS011;9572;52.378;13.404;2023-12-28T10:30:19;3.90;;;2.20;;
18879;SDS011;9572;52.378;13.404;2023-12-28T10:32:46;3.43;;;1.73;;
18879;SDS011;9572;52.378;13.404;2023-12-28T10:35:13;2.33;;;1.80;;
18879;SDS011;9572;52.378;13.404;2023-12-28T10:37:41;2.90;;;2.00;;
18879;SDS011;9572;52.378;13.404;2023-12-28T10:40:11;2.00;;;1.80;;
18879;SDS011;9572;52.378;13.404;2023-12-28T10:42:49;2.93;;;1.77;;
18879;SDS011;9572;52.378;13.404;2023-12-28T10:45:18;3.50;;;2.10;;
18879;SDS011;9572;52.378;13.404;2023-12-28T10:47:51;3.40;;;2.17;;
18879;SDS011;9572;52.378;13.404;2023-12-28T10:50:28;2.37;;;1.93;;
18879;SDS011;9572;52.378;13.404;2023-12-28T10:53:04;2.27;;;1.87;;
18879;SDS011;9572;52.378;13.404;2023-12-28T10:55:45;3.10;;;1.97;;
18879;SDS011;9572;52.378;13.404;2023-12-28T10:58:21;3.63;;;1.90;;
18879;SDS011;9572;52.378;13.404;2023-12-28T11:00:55;3.33;;;1.87;;
18879;SDS011;9572;52.378;13.404;2023-12-28T11:03:27;3.73;;;1.70;;
18879;SDS011;9572;52.378;13.404;2023-12-28T11:05:57;2.83;;;1.80;;
18879;SDS011;9572;52.378;13.404;2023-12-28T11:08:24;5.23;;;2.13;;
18879;SDS011;9572;52.378;13.404;2023-12-28T11:10:51;3.37;;;2.00;;
18879;SDS011;9572;52.378;13.404;2023-12-28T11:13:20;3.17;;;2.00;;
18879;SDS011;9572;52.378;13.404;2023-12-28T11:15:49;5.67;;;1.90;;
18879;SDS011;9572;52.378;13.404;2023-12-28T11:18:16;3.73;;;2.20;;
18879;SDS011;9572;52.378;13.404;2023-12-28T11:20:46;4.43;;;2.30;;
18879;SDS011;9572;52.378;13.404;2023-12-28T11:23:14;4.27;;;1.77;;
18879;SDS011;9572;52.378;13.404;2023-12-28T11:25:41;5.23;;;2.60;;
18879;SDS011;9572;52.378;13.404;2023-12-28T11:28:09;2.40;;;2.00;;
18879;SDS011;9572;52.378;13.404;2023-12-28T11:30:38;3.43;;;2.00;;
18879;SDS011;9572;52.378;13.404;2023-12-28T11:33:07;4.63;;;2.10;;
18879;SDS011;9572;52.378;13.404;2023-12-28T11:35:36;1.57;;;1.47;;
18879;SDS011;9572;52.378;13.404;2023-12-28T11:38:06;3.63;;;2.00;;
18879;SDS011;9572;52.378;13.404;2023-12-28T11:40:39;2.23;;;1.70;;
18879;SDS011;9572;52.378;13.404;2023-12-28T11:43:14;4.07;;;1.80;;
18879;SDS011;9572;52.378;13.404;2023-12-28T11:45:47;2.83;;;1.90;;
18879;SDS011;9572;52.378;13.404;2023-12-28T11:48:22;4.03;;;2.00;;
18879;SDS011;9572;52.378;13.404;2023-12-28T11:50:49;3.07;;;2.03;;
18879;SDS011;9572;52.378;13.404;2023-12-28T11:53:16;3.90;;;2.10;;
18879;SDS011;9572;52.378;13.404;2023-12-28T11:55:44;2.97;;;1.87;;
18879;SDS011;9572;52.378;13.404;2023-12-28T11:58:11;4.57;;;1.87;;
18879;SDS011;9572;52.378;13.404;2023-12-28T12:00:39;3.07;;;1.90;;
18879;SDS011;9572;52.378;13.404;2023-12-28T12:03:10;3.93;;;2.00;;
18879;SDS011;9572;52.378;13.404;2023-12-28T12:05:37;1.93;;;1.73;;
18879;SDS011;9572;52.378;13.404;2023-12-28T12:08:05;2.20;;;1.60;;
18879;SDS011;9572;52.378;13.404;2023-12-28T12:10:33;7.17;;;1.80;;
18879;SDS011;9572;52.378;13.404;2023-12-28T12:13:00;2.23;;;1.40;;
18879;SDS011;9572;52.378;13.404;2023-12-28T12:15:29;3.13;;;1.60;;
18879;SDS011;9572;52.378;13.404;2023-12-28T12:17:56;2.93;;;1.60;;
18879;SDS011;9572;52.378;13.404;2023-12-28T12:20:24;4.50;;;1.80;;
18879;SDS011;9572;52.378;13.404;2023-12-28T12:22:51;3.30;;;1.80;;
18879;SDS011;9572;52.378;13.404;2023-12-28T12:25:18;3.30;;;1.70;;
18879;SDS011;9572;52.378;13.404;2023-12-28T12:27:45;2.30;;;1.73;;
18879;SDS011;9572;52.378;13.404;2023-12-28T12:30:13;2.42;;;1.73;;
18879;SDS011;9572;52.378;13.404;2023-12-28T12:32:40;8.03;;;1.90;;
18879;SDS011;9572;52.378;13.404;2023-12-28T12:35:08;3.47;;;2.00;;
18879;SDS011;9572;52.378;13.404;2023-12-28T12:37:37;2.55;;;1.75;;
18879;SDS011;9572;52.378;13.404;2023-12-28T12:40:04;2.70;;;1.47;;
18879;SDS011;9572;52.378;13.404;2023-12-28T12:42:32;4.90;;;1.80;;
18879;SDS011;9572;52.378;13.404;2023-12-28T12:44:59;2.75;;;1.58;;
18879;SDS011;9572;52.378;13.404;2023-12-28T12:47:31;2.15;;;1.48;;
18879;SDS011;9572;52.378;13.404;2023-12-28T12:49:59;2.90;;;1.83;;
18879;SDS011;9572;52.378;13.404;2023-12-28T12:52:26;1.70;;;1.45;;
18879;SDS011;9572;52.378;13.404;2023-12-28T12:54:55;2.33;;;1.48;;
18879;SDS011;9572;52.378;13.404;2023-12-28T12:57:22;5.05;;;1.73;;
18879;SDS011;9572;52.378;13.404;2023-12-28T12:59:50;2.60;;;1.80;;
18879;SDS011;9572;52.378;13.404;2023-12-28T13:02:17;3.47;;;1.80;;
18879;SDS011;9572;52.378;13.404;2023-12-28T13:04:44;3.17;;;1.50;;
18879;SDS011;9572;52.378;13.404;2023-12-28T13:07:11;1.98;;;1.40;;
18879;SDS011;9572;52.378;13.404;2023-12-28T13:09:38;2.53;;;1.17;;
18879;SDS011;9572;52.378;13.404;2023-12-28T13:12:06;2.40;;;1.50;;
18879;SDS011;9572;52.378;13.404;2023-12-28T13:14:34;4.90;;;1.63;;
18879;SDS011;9572;52.378;13.404;2023-12-28T13:17:01;2.70;;;1.40;;
18879;SDS011;9572;52.378;13.404;2023-12-28T13:19:27;4.05;;;1.63;;
18879;SDS011;9572;52.378;13.404;2023-12-28T13:21:54;4.50;;;1.50;;
18879;SDS011;9572;52.378;13.404;2023-12-28T13:24:21;2.70;;;1.53;;
18879;SDS011;9572;52.378;13.404;2023-12-28T13:26:48;2.35;;;1.40;;
18879;SDS011;9572;52.378;13.404;2023-12-28T13:29:16;3.88;;;1.63;;
18879;SDS011;9572;52.378;13.404;2023-12-28T13:31:43;2.83;;;1.60;;
18879;SDS011;9572;52.378;13.404;2023-12-28T13:34:15;5.13;;;1.55;;
18879;SDS011;9572;52.378;13.404;2023-12-28T13:36:43;4.60;;;1.70;;
18879;SDS011;9572;52.378;13.404;2023-12-28T13:39:10;3.20;;;1.70;;
18879;SDS011;9572;52.378;13.404;2023-12-28T13:41:39;1.83;;;1.50;;
18879;SDS011;9572;52.378;13.404;2023-12-28T13:44:06;2.88;;;1.60;;
18879;SDS011;9572;52.378;13.404;2023-12-28T13:46:38;3.42;;;1.33;;
18879;SDS011;9572;52.378;13.404;2023-12-28T13:49:05;2.58;;;1.45;;
18879;SDS011;9572;52.378;13.404;2023-12-28T13:51:32;4.15;;;1.80;;
18879;SDS011;9572;52.378;13.404;2023-12-28T13:53:59;1.73;;;1.30;;
18879;SDS011;9572;52.378;13.404;2023-12-28T13:56:26;1.80;;;1.15;;
18879;SDS011;9572;52.378;13.404;2023-12-28T13:58:53;3.03;;;1.90;;
18879;SDS011;9572;52.378;13.404;2023-12-28T14:01:20;4.77;;;1.57;;
18879;SDS011;9572;52.378;13.404;2023-12-28T14:03:48;4.43;;;1.98;;
18879;SDS011;9572;52.378;13.404;2023-12-28T14:06:16;3.40;;;1.53;;
18879;SDS011;9572;52.378;13.404;2023-12-28T14:08:44;4.47;;;1.70;;
18879;SDS011;9572;52.378;13.404;2023-12-28T14:11:11;5.80;;;1.80;;
18879;SDS011;9572;52.378;13.404;2023-12-28T14:13:38;2.53;;;1.67;;
18879;SDS011;9572;52.378;13.404;2023-12-28T14:16:05;5.33;;;1.40;;
18879;SDS011;9572;52.378;13.404;2023-12-28T14:18:33;2.80;;;1.40;;
18879;SDS011;9572;52.378;13.404;2023-12-28T14:21:01;3.33;;;1.40;;
18879;SDS011;9572;52.378;13.404;2023-12-28T14:23:29;2.50;;;1.43;;
18879;SDS011;9572;52.378;13.404;2023-12-28T14:25:57;2.03;;;1.23;;
18879;SDS011;9572;52.378;13.404;2023-12-28T14:28:24;2.43;;;1.40;;
18879;SDS011;9572;52.378;13.404;2023-12-28T14:30:51;2.47;;;1.20;;
18879;SDS011;9572;52.378;13.404;2023-12-28T14:33:20;5.50;;;1.65;;
18879;SDS011;9572;52.378;13.404;2023-12-28T14:35:47;5.15;;;1.80;;
18879;SDS011;9572;52.378;13.404;2023-12-28T14:38:15;2.75;;;1.35;;
18879;SDS011;9572;52.378;13.404;2023-12-28T14:40:42;2.85;;;1.67;;
18879;SDS011;9572;52.378;13.404;2023-12-28T14:43:10;2.50;;;1.60;;
18879;SDS011;9572;52.378;13.404;2023-12-28T14:45:36;2.33;;;1.60;;
18879;SDS011;9572;52.378;13.404;2023-12-28T14:48:04;1.63;;;1.30;;
18879;SDS011;9572;52.378;13.404;2023-12-28T14:50:31;4.57;;;1.60;;